createdAt,value
2022-09-26T00:00:42.186Z,7.55
2022-09-26T00:03:10.628Z,7.50
2022-09-26T00:05:39.167Z,7.00
2022-09-26T00:08:07.236Z,6.75
2022-09-26T00:10:34.986Z,7.43
2022-09-26T00:13:01.861Z,7.72
2022-09-26T00:15:28.724Z,7.45
2022-09-26T00:17:55.470Z,7.97
2022-09-26T00:20:22.492Z,7.85
2022-09-26T00:22:49.215Z,7.53
2022-09-26T00:25:16.043Z,8.45
2022-09-26T00:27:42.735Z,8.10
2022-09-26T00:30:10.010Z,7.78
2022-09-26T00:32:36.702Z,7.47
2022-09-26T00:35:03.553Z,7.78
2022-09-26T00:37:30.278Z,8.20
2022-09-26T00:39:56.951Z,8.30
2022-09-26T00:42:24.167Z,7.60
2022-09-26T00:44:56.872Z,7.55
2022-09-26T00:47:44.912Z,7.47
2022-09-26T00:50:24.652Z,7.60
2022-09-26T00:53:19.004Z,7.55
2022-09-26T00:55:51.781Z,7.33
2022-09-26T00:58:26.204Z,7.13
2022-09-26T01:00:54.703Z,7.07
2022-09-26T01:03:22.681Z,7.57
2022-09-26T01:05:49.760Z,7.55
2022-09-26T01:08:22.179Z,7.40
2022-09-26T01:10:50.136Z,7.25
2022-09-26T01:13:17.515Z,7.53
2022-09-26T01:15:44.527Z,7.00
2022-09-26T01:18:11.366Z,7.00
2022-09-26T01:21:01.149Z,6.43
2022-09-26T01:23:55.739Z,6.85
2022-09-26T01:26:28.522Z,6.03
2022-09-26T01:29:26.225Z,6.13
2022-09-26T01:32:35.691Z,5.85
2022-09-26T01:35:15.749Z,5.50
2022-09-26T01:37:42.363Z,5.22
2022-09-26T01:40:38.830Z,5.30
2022-09-26T01:43:15.418Z,4.90
2022-09-26T01:46:03.199Z,4.15
2022-09-26T01:49:01.904Z,3.92
2022-09-26T01:51:36.432Z,3.55
2022-09-26T01:56:38.471Z,3.88
2022-09-26T01:59:10.594Z,3.22
2022-09-26T02:01:44.516Z,3.67
2022-09-26T02:04:20.054Z,3.97
2022-09-26T02:07:02.093Z,4.05
2022-09-26T02:09:52.460Z,4.05
2022-09-26T02:12:36.813Z,3.70
2022-09-26T02:15:08.849Z,3.97
2022-09-26T02:17:41.620Z,4.50
2022-09-26T02:20:27.431Z,4.05
2022-09-26T02:22:55.118Z,4.00
2022-09-26T02:25:21.811Z,4.63
2022-09-26T02:27:49.936Z,4.93
2022-09-26T02:30:16.925Z,4.10
2022-09-26T02:32:44.093Z,4.35
2022-09-26T02:35:30.497Z,4.57
2022-09-26T02:37:57.216Z,4.75
2022-09-26T02:40:32.860Z,4.95
2022-09-26T02:43:13.825Z,4.85
2022-09-26T02:45:54.425Z,5.00
2022-09-26T02:48:43.278Z,5.47
2022-09-26T02:51:17.660Z,4.80
2022-09-26T02:54:13.719Z,5.10
2022-09-26T02:57:12.944Z,5.45
2022-09-26T02:59:51.764Z,5.60
2022-09-26T03:02:22.847Z,5.22
2022-09-26T03:04:54.297Z,5.63
2022-09-26T03:07:27.418Z,4.93
2022-09-26T03:09:56.015Z,5.13
2022-09-26T03:12:25.246Z,5.40
2022-09-26T03:14:57.952Z,5.90
2022-09-26T03:17:28.134Z,5.30
2022-09-26T03:20:14.810Z,5.80
2022-09-26T03:22:43.813Z,5.93
2022-09-26T03:25:16.225Z,5.93
2022-09-26T03:27:44.008Z,5.85
2022-09-26T03:30:12.485Z,5.80
2022-09-26T03:32:39.456Z,6.00
2022-09-26T03:35:06.857Z,6.00
2022-09-26T03:37:35.257Z,5.75
2022-09-26T03:40:06.865Z,6.72
2022-09-26T03:42:33.985Z,6.40
2022-09-26T03:45:02.301Z,5.88
2022-09-26T03:47:29.155Z,6.10
2022-09-26T03:49:56.317Z,6.00
2022-09-26T03:52:25.051Z,6.10
2022-09-26T03:54:53.232Z,5.88
2022-09-26T03:57:20.648Z,6.68
2022-09-26T03:59:47.363Z,6.55
2022-09-26T04:02:14.321Z,6.10
2022-09-26T04:04:40.979Z,6.07
2022-09-26T04:07:08.332Z,6.15
2022-09-26T04:09:35.190Z,6.30
2022-09-26T04:12:02.062Z,6.70
2022-09-26T04:14:28.740Z,6.30
2022-09-26T04:16:55.420Z,7.00
2022-09-26T04:19:22.026Z,6.90
2022-09-26T04:21:48.747Z,6.45
2022-09-26T04:24:16.582Z,6.50
2022-09-26T04:26:45.381Z,6.45
2022-09-26T04:29:13.326Z,7.10
2022-09-26T04:31:40.457Z,6.53
2022-09-26T04:34:07.471Z,6.25
2022-09-26T04:36:34.175Z,5.95
2022-09-26T04:39:00.950Z,7.07
2022-09-26T04:41:29.634Z,7.40
2022-09-26T04:43:59.405Z,7.53
2022-09-26T04:46:30.823Z,7.97
2022-09-26T04:49:00.393Z,7.45
2022-09-26T04:51:28.778Z,7.32
2022-09-26T04:53:56.101Z,9.07
2022-09-26T04:56:24.596Z,7.80
2022-09-26T04:58:54.618Z,7.90
2022-09-26T05:01:22.297Z,7.03
2022-09-26T05:03:49.301Z,7.78
2022-09-26T05:06:17.644Z,7.85
2022-09-26T05:08:46.776Z,7.35
2022-09-26T05:11:15.483Z,7.97
2022-09-26T05:13:42.936Z,7.53
2022-09-26T05:16:11.238Z,8.05
2022-09-26T05:18:39.313Z,8.57
2022-09-26T05:21:07.471Z,8.18
2022-09-26T05:23:53.363Z,7.55
2022-09-26T05:26:31.098Z,8.20
2022-09-26T05:29:08.566Z,7.47
2022-09-26T05:31:38.106Z,8.32
2022-09-26T05:34:06.202Z,7.95
2022-09-26T05:36:33.595Z,7.85
2022-09-26T05:39:00.677Z,8.30
2022-09-26T05:41:29.702Z,8.18
2022-09-26T05:43:56.705Z,7.30
2022-09-26T05:46:24.282Z,8.10
2022-09-26T05:48:51.201Z,9.65
2022-09-26T05:51:21.273Z,8.55
2022-09-26T05:53:49.447Z,8.38
2022-09-26T05:56:19.256Z,8.10
2022-09-26T05:58:46.756Z,8.68
2022-09-26T06:01:18.382Z,8.90
2022-09-26T06:03:46.937Z,8.60
2022-09-26T06:06:16.215Z,8.40
2022-09-26T06:08:43.910Z,8.63
2022-09-26T06:11:16.306Z,8.77
2022-09-26T06:13:45.657Z,8.90
2022-09-26T06:16:18.808Z,8.40
2022-09-26T06:18:50.733Z,11.73
2022-09-26T06:21:19.254Z,9.18
2022-09-26T06:23:46.218Z,8.25
2022-09-26T06:26:24.309Z,5.97
2022-09-26T06:29:00.118Z,5.40
2022-09-26T06:31:27.491Z,5.53
2022-09-26T06:33:54.296Z,5.80
2022-09-26T06:36:23.222Z,5.80
2022-09-26T06:38:50.262Z,5.63
2022-09-26T06:41:17.260Z,5.50
2022-09-26T06:43:45.413Z,6.20
2022-09-26T06:46:16.500Z,6.00
2022-09-26T06:48:43.903Z,5.90
2022-09-26T06:51:13.401Z,4.50
2022-09-26T06:53:40.953Z,4.78
2022-09-26T06:56:08.164Z,4.55
2022-09-26T06:58:34.948Z,4.88
2022-09-26T07:01:02.442Z,5.10
2022-09-26T07:03:29.613Z,4.32
2022-09-26T07:05:57.292Z,4.80
2022-09-26T07:08:37.694Z,4.40
2022-09-26T07:11:34.747Z,5.47
2022-09-26T07:14:07.485Z,5.00
2022-09-26T07:16:34.177Z,4.82
2022-09-26T07:19:01.042Z,4.75
2022-09-26T07:21:27.711Z,4.35
2022-09-26T07:23:57.619Z,5.45
2022-09-26T07:26:24.495Z,4.75
2022-09-26T07:28:54.756Z,6.13
2022-09-26T07:31:23.593Z,6.53
2022-09-26T07:33:50.451Z,6.93
2022-09-26T07:36:18.459Z,7.43
2022-09-26T07:38:48.504Z,7.75
2022-09-26T07:41:15.703Z,5.72
2022-09-26T07:44:34.698Z,3.35
2022-09-26T07:46:48.361Z,2.35
2022-09-26T07:49:33.803Z,2.65
2022-09-26T07:52:00.789Z,3.30
2022-09-26T07:54:27.499Z,3.63
2022-09-26T07:56:55.177Z,2.58
2022-09-26T07:59:22.924Z,2.47
2022-09-26T08:01:49.856Z,2.60
2022-09-26T08:04:18.634Z,2.67
2022-09-26T08:06:45.778Z,2.42
2022-09-26T08:09:13.118Z,2.72
2022-09-26T08:11:41.907Z,2.50
2022-09-26T08:14:08.816Z,2.50
2022-09-26T08:16:39.695Z,2.92
2022-09-26T08:19:07.908Z,3.15
2022-09-26T08:21:35.291Z,2.90
2022-09-26T08:24:02.257Z,3.17
2022-09-26T08:26:29.035Z,2.85
2022-09-26T08:28:55.692Z,3.00
2022-09-26T08:31:22.753Z,3.00
2022-09-26T08:33:49.496Z,3.47
2022-09-26T08:36:16.963Z,2.88
2022-09-26T08:38:43.668Z,2.38
2022-09-26T08:41:44.608Z,1.70
2022-09-26T08:44:33.501Z,1.75
2022-09-26T08:47:05.194Z,2.25
2022-09-26T08:49:42.509Z,1.98
2022-09-26T08:52:35.876Z,1.90
2022-09-26T08:55:10.522Z,1.85
2022-09-26T08:57:42.304Z,2.30
2022-09-26T09:00:19.909Z,2.03
2022-09-26T09:03:01.054Z,1.98
2022-09-26T09:05:41.448Z,1.60
2022-09-26T09:08:22.282Z,1.73
2022-09-26T09:11:22.864Z,1.45
2022-09-26T09:14:11.542Z,1.40
2022-09-26T09:16:57.392Z,1.30
2022-09-26T09:19:49.131Z,1.30
2022-09-26T09:22:26.286Z,1.20
2022-09-26T09:25:00.601Z,1.48
2022-09-26T09:28:08.425Z,1.20
2022-09-26T09:30:43.827Z,1.25
2022-09-26T09:33:21.748Z,1.30
2022-09-26T09:35:56.197Z,1.35
2022-09-26T09:41:02.909Z,1.70
2022-09-26T09:43:41.055Z,1.50
2022-09-26T09:46:16.774Z,1.25
2022-09-26T09:48:46.649Z,1.20
2022-09-26T09:51:27.856Z,1.10
2022-09-26T09:54:27.960Z,1.10
2022-09-26T09:57:28.111Z,1.10
2022-09-26T10:00:05.786Z,1.00
2022-09-26T10:02:51.188Z,0.95
2022-09-26T10:05:33.644Z,1.10
2022-09-26T10:08:00.859Z,0.90
2022-09-26T10:10:54.585Z,1.10
2022-09-26T10:13:25.266Z,0.90
2022-09-26T10:15:59.864Z,1.38
2022-09-26T10:18:27.538Z,1.20
2022-09-26T10:21:20.883Z,1.05
2022-09-26T10:23:50.497Z,1.60
2022-09-26T10:26:27.724Z,1.00
2022-09-26T10:28:57.498Z,1.17
2022-09-26T10:31:42.516Z,1.20
2022-09-26T10:34:42.457Z,1.23
2022-09-26T10:37:25.515Z,1.30
2022-09-26T10:40:12.534Z,1.40
2022-09-26T10:42:39.534Z,1.10
2022-09-26T10:45:15.993Z,1.13
2022-09-26T10:47:47.446Z,1.00
2022-09-26T10:50:24.753Z,1.10
2022-09-26T10:52:57.409Z,0.85
2022-09-26T10:55:30.140Z,1.38
2022-09-26T10:58:01.035Z,1.10
2022-09-26T11:00:33.864Z,1.05
2022-09-26T11:03:00.800Z,1.65
2022-09-26T11:05:45.912Z,1.20
2022-09-26T11:08:14.264Z,1.40
2022-09-26T11:10:42.211Z,1.20
2022-09-26T11:13:17.741Z,1.20
2022-09-26T11:16:12.940Z,1.00
2022-09-26T11:18:53.805Z,0.82
2022-09-26T11:21:41.245Z,1.10
2022-09-26T11:24:24.788Z,1.15
2022-09-26T11:27:19.411Z,1.08
2022-09-26T11:30:02.634Z,1.05
2022-09-26T11:32:33.129Z,1.08
2022-09-26T11:35:06.085Z,1.40
2022-09-26T11:37:38.970Z,1.55
2022-09-26T11:40:34.813Z,1.50
2022-09-26T11:43:13.617Z,1.30
2022-09-26T11:46:03.665Z,1.30
2022-09-26T11:48:49.056Z,1.25
2022-09-26T11:51:50.790Z,1.40
2022-09-26T11:54:33.429Z,1.40
2022-09-26T11:57:14.586Z,1.30
2022-09-26T12:00:00.206Z,1.42
2022-09-26T12:02:57.473Z,1.50
2022-09-26T12:05:39.744Z,1.60
2022-09-26T12:08:25.065Z,1.67
2022-09-26T12:10:57.454Z,1.58
2022-09-26T12:13:58.237Z,1.50
2022-09-26T12:16:31.917Z,1.23
2022-09-26T12:19:32.074Z,1.50
2022-09-26T12:22:29.589Z,1.55
2022-09-26T12:25:19.891Z,1.40
2022-09-26T12:28:17.339Z,1.40
2022-09-26T12:31:01.455Z,1.60
2022-09-26T12:34:09.577Z,1.52
2022-09-26T12:36:54.694Z,1.20
2022-09-26T12:39:41.978Z,1.48
2022-09-26T12:42:39.771Z,1.42
2022-09-26T12:45:25.960Z,1.50
2022-09-26T12:48:10.953Z,1.50
2022-09-26T12:51:16.322Z,1.77
2022-09-26T12:54:10.803Z,1.50
2022-09-26T12:56:47.111Z,2.00
2022-09-26T12:59:16.854Z,1.70
2022-09-26T13:02:03.770Z,1.80
2022-09-26T13:05:08.597Z,1.70
2022-09-26T13:07:51.474Z,1.90
2022-09-26T13:10:41.916Z,2.20
2022-09-26T13:13:18.125Z,1.85
2022-09-26T13:16:04.770Z,1.60
2022-09-26T13:18:37.582Z,1.50
2022-09-26T13:21:12.040Z,1.77
2022-09-26T13:26:19.669Z,1.60
2022-09-26T13:29:17.248Z,3.10
2022-09-26T13:31:55.873Z,2.80
2022-09-26T13:34:28.427Z,1.85
2022-09-26T13:36:59.328Z,1.50
2022-09-26T13:39:32.654Z,2.75
2022-09-26T13:42:11.424Z,2.17
2022-09-26T13:44:49.106Z,2.38
2022-09-26T13:47:43.703Z,1.80
2022-09-26T13:50:31.579Z,1.63
2022-09-26T13:53:26.898Z,2.00
2022-09-26T13:56:31.377Z,2.67
2022-09-26T13:59:11.573Z,2.17
2022-09-26T14:01:59.223Z,2.17
2022-09-26T14:04:33.950Z,1.92
2022-09-26T14:07:03.710Z,1.65
2022-09-26T14:09:42.424Z,2.00
2022-09-26T14:12:49.542Z,2.35
2022-09-26T14:15:22.827Z,2.80
2022-09-26T14:17:52.224Z,2.65
2022-09-26T14:20:27.503Z,1.83
2022-09-26T14:22:57.051Z,2.15
2022-09-26T14:25:45.503Z,2.38
2022-09-26T14:28:31.871Z,3.10
2022-09-26T14:31:26.694Z,2.20
2022-09-26T14:34:23.383Z,2.20
2022-09-26T14:36:53.167Z,2.20
2022-09-26T14:39:33.224Z,1.95
2022-09-26T14:42:15.589Z,3.30
2022-09-26T14:44:58.597Z,2.33
2022-09-26T14:47:28.044Z,2.20
2022-09-26T14:50:04.256Z,2.50
2022-09-26T14:52:32.249Z,2.20
2022-09-26T14:55:01.459Z,2.90
2022-09-26T14:57:32.904Z,2.80
2022-09-26T15:00:02.105Z,2.85
2022-09-26T15:02:41.108Z,2.53
2022-09-26T15:05:23.521Z,2.40
2022-09-26T15:07:52.827Z,2.80
2022-09-26T15:10:26.825Z,2.72
2022-09-26T15:13:19.427Z,3.10
2022-09-26T15:16:20.852Z,2.80
2022-09-26T15:18:56.601Z,2.55
2022-09-26T15:21:28.695Z,3.40
2022-09-26T15:23:57.386Z,2.10
2022-09-26T15:26:28.498Z,2.30
2022-09-26T15:28:56.971Z,2.47
2022-09-26T15:31:41.315Z,2.03
2022-09-26T15:34:36.417Z,2.00
2022-09-26T15:37:15.261Z,2.10
2022-09-26T15:39:42.843Z,1.63
2022-09-26T15:42:27.996Z,1.70
2022-09-26T15:45:00.484Z,2.03
2022-09-26T15:47:30.279Z,1.65
2022-09-26T15:50:12.925Z,1.40
2022-09-26T15:52:46.660Z,1.02
2022-09-26T15:55:21.360Z,1.33
2022-09-26T15:57:51.614Z,1.00
2022-09-26T16:00:18.677Z,0.70
2022-09-26T16:02:46.675Z,0.80
2022-09-26T16:05:14.832Z,0.85
2022-09-26T16:07:48.707Z,0.70
2022-09-26T16:10:29.612Z,0.80
2022-09-26T16:13:00.430Z,0.85
2022-09-26T16:15:31.068Z,0.80
2022-09-26T16:17:58.860Z,1.10
2022-09-26T16:20:29.180Z,1.08
2022-09-26T16:23:04.757Z,1.20
2022-09-26T16:25:35.265Z,1.40
2022-09-26T16:28:20.956Z,1.33
2022-09-26T16:30:59.764Z,1.30
2022-09-26T16:33:32.216Z,1.20
2022-09-26T16:36:11.856Z,1.40
2022-09-26T16:38:38.750Z,1.20
2022-09-26T16:41:36.305Z,1.30
2022-09-26T16:44:27.487Z,1.73
2022-09-26T16:46:58.925Z,1.42
2022-09-26T16:49:42.303Z,2.30
2022-09-26T16:52:36.566Z,2.00
2022-09-26T16:55:08.545Z,1.95
2022-09-26T16:57:57.333Z,1.42
2022-09-26T17:00:46.806Z,1.95
2022-09-26T17:03:26.430Z,1.67
2022-09-26T17:05:57.709Z,1.60
2022-09-26T17:08:26.486Z,1.55
2022-09-26T17:11:01.963Z,1.77
2022-09-26T17:13:31.155Z,1.60
2022-09-26T17:16:03.436Z,2.20
2022-09-26T17:18:33.262Z,1.88
2022-09-26T17:21:00.447Z,2.03
2022-09-26T17:23:40.962Z,2.03
2022-09-26T17:26:12.238Z,2.25
2022-09-26T17:28:45.373Z,2.55
2022-09-26T17:31:19.877Z,2.50
2022-09-26T17:33:49.667Z,2.72
2022-09-26T17:36:25.777Z,2.80
2022-09-26T17:38:53.450Z,3.58
2022-09-26T17:41:20.496Z,3.60
2022-09-26T17:43:47.175Z,2.50
2022-09-26T17:46:16.255Z,2.65
2022-09-26T17:48:44.583Z,2.60
2022-09-26T17:51:14.313Z,3.53
2022-09-26T17:53:50.460Z,2.67
2022-09-26T17:56:19.045Z,2.80
2022-09-26T17:58:47.047Z,2.03
2022-09-26T18:01:23.353Z,2.40
2022-09-26T18:03:55.023Z,2.88
2022-09-26T18:06:26.044Z,3.05
2022-09-26T18:08:54.947Z,2.50
2022-09-26T18:11:21.681Z,2.97
2022-09-26T18:13:54.440Z,4.18
2022-09-26T18:16:24.913Z,4.50
2022-09-26T18:18:52.207Z,4.63
2022-09-26T18:21:19.526Z,3.85
2022-09-26T18:23:59.017Z,3.50
2022-09-26T18:26:28.857Z,3.05
2022-09-26T18:28:57.266Z,3.05
2022-09-26T18:31:33.035Z,3.10
2022-09-26T18:34:01.105Z,2.65
2022-09-26T18:36:29.625Z,2.70
2022-09-26T18:38:56.275Z,2.38
2022-09-26T18:41:26.533Z,2.92
2022-09-26T18:43:55.711Z,2.90
2022-09-26T18:46:23.594Z,2.85
2022-09-26T18:48:54.567Z,3.00
2022-09-26T18:51:21.324Z,2.67
2022-09-26T18:53:47.982Z,2.67
2022-09-26T18:56:33.246Z,2.55
2022-09-26T18:58:59.894Z,2.58
2022-09-26T19:01:28.682Z,3.53
2022-09-26T19:03:58.246Z,3.50
2022-09-26T19:06:34.608Z,3.25
2022-09-26T19:09:07.765Z,3.00
2022-09-26T19:11:35.181Z,3.03
2022-09-26T19:14:12.808Z,2.90
2022-09-26T19:16:39.607Z,2.70
2022-09-26T19:19:06.352Z,2.72
2022-09-26T19:21:35.260Z,2.80
2022-09-26T19:24:20.212Z,2.92
2022-09-26T19:27:02.739Z,3.00
2022-09-26T19:29:42.521Z,3.08
2022-09-26T19:32:23.039Z,5.28
2022-09-26T19:34:55.614Z,5.10
2022-09-26T19:37:22.278Z,3.53
2022-09-26T19:39:48.964Z,3.00
2022-09-26T19:42:15.740Z,3.00
2022-09-26T19:44:42.530Z,3.35
2022-09-26T19:47:18.132Z,3.25
2022-09-26T19:49:50.860Z,3.40
2022-09-26T19:52:20.041Z,3.45
2022-09-26T19:54:47.499Z,3.45
2022-09-26T19:57:16.630Z,3.10
2022-09-26T19:59:44.086Z,3.13
2022-09-26T20:02:20.778Z,3.70
2022-09-26T20:04:47.952Z,3.33
2022-09-26T20:07:17.358Z,3.20
2022-09-26T20:09:44.595Z,3.08
2022-09-26T20:12:11.814Z,3.00
2022-09-26T20:14:38.739Z,3.15
2022-09-26T20:17:17.789Z,3.30
2022-09-26T20:19:48.521Z,3.10
2022-09-26T20:22:17.586Z,3.33
2022-09-26T20:24:48.132Z,3.08
2022-09-26T20:27:21.721Z,2.58
2022-09-26T20:30:07.940Z,2.97
2022-09-26T20:32:36.238Z,2.78
2022-09-26T20:35:04.282Z,2.85
2022-09-26T20:37:35.835Z,3.30
2022-09-26T20:40:06.132Z,2.38
2022-09-26T20:42:39.741Z,2.90
2022-09-26T20:45:15.003Z,2.90
2022-09-26T20:47:43.456Z,3.40
2022-09-26T20:50:18.135Z,2.88
2022-09-26T20:52:45.063Z,2.78
2022-09-26T20:55:16.641Z,2.92
2022-09-26T20:57:43.856Z,2.58
2022-09-26T21:00:14.997Z,2.83
2022-09-26T21:02:41.791Z,2.38
2022-09-26T21:05:21.162Z,2.78
2022-09-26T21:07:48.888Z,3.33
2022-09-26T21:10:32.773Z,3.30
2022-09-26T21:13:00.657Z,2.33
2022-09-26T21:15:30.384Z,2.17
2022-09-26T21:17:57.704Z,2.30
2022-09-26T21:20:25.828Z,2.20
2022-09-26T21:22:53.785Z,2.20
2022-09-26T21:25:23.248Z,2.53
2022-09-26T21:27:55.244Z,2.10
2022-09-26T21:30:22.206Z,2.72
2022-09-26T21:32:52.862Z,2.50
2022-09-26T21:35:22.853Z,2.00
2022-09-26T21:37:51.901Z,1.70
2022-09-26T21:40:20.268Z,1.50
2022-09-26T21:42:51.169Z,1.50
2022-09-26T21:45:22.409Z,1.50
2022-09-26T21:47:52.166Z,1.77
2022-09-26T21:50:20.132Z,1.63
2022-09-26T21:52:52.346Z,1.70
2022-09-26T21:55:29.686Z,1.40
2022-09-26T21:58:01.402Z,1.40
2022-09-26T22:00:28.087Z,1.50
2022-09-26T22:02:58.713Z,1.58
2022-09-26T22:05:25.570Z,1.17
2022-09-26T22:07:52.247Z,1.42
2022-09-26T22:10:19.257Z,1.30
2022-09-26T22:12:46.057Z,1.30
2022-09-26T22:15:12.801Z,1.33
2022-09-26T22:17:39.501Z,1.35
2022-09-26T22:20:06.380Z,1.35
2022-09-26T22:22:33.079Z,1.27
2022-09-26T22:25:03.843Z,1.40
2022-09-26T22:27:31.625Z,1.40
2022-09-26T22:29:58.397Z,1.33
2022-09-26T22:32:25.324Z,1.58
2022-09-26T22:34:52.051Z,1.40
2022-09-26T22:37:18.841Z,1.27
2022-09-26T22:39:45.537Z,1.33
2022-09-26T22:42:12.204Z,1.40
2022-09-26T22:44:38.894Z,1.30
2022-09-26T22:47:06.050Z,1.30
2022-09-26T22:49:32.843Z,1.40
2022-09-26T22:52:00.331Z,1.60
2022-09-26T22:54:27.193Z,1.42
2022-09-26T22:56:54.417Z,1.30
2022-09-26T22:59:21.151Z,1.38
2022-09-26T23:01:50.025Z,1.40
2022-09-26T23:04:16.730Z,1.48
2022-09-26T23:06:43.408Z,1.55
2022-09-26T23:09:10.132Z,1.40
2022-09-26T23:11:36.904Z,1.20
2022-09-26T23:14:03.802Z,1.25
2022-09-26T23:16:30.526Z,1.27
2022-09-26T23:18:57.966Z,1.52
2022-09-26T23:21:27.085Z,1.40
2022-09-26T23:23:55.633Z,1.30
2022-09-26T23:26:28.022Z,1.20
2022-09-26T23:28:56.413Z,1.30
2022-09-26T23:31:24.336Z,1.30
2022-09-26T23:33:52.340Z,1.65
2022-09-26T23:36:19.666Z,1.52
2022-09-26T23:38:47.177Z,1.70
2022-09-26T23:41:14.593Z,1.30
2022-09-26T23:43:41.692Z,1.70
2022-09-26T23:46:08.764Z,1.67
2022-09-26T23:48:36.690Z,1.48
2022-09-26T23:51:03.942Z,1.38
2022-09-26T23:53:30.614Z,1.52
2022-09-26T23:56:09.164Z,1.30
2022-09-26T23:58:37.155Z,1.70
